A- A+ FrançaisEnglishEspañol中国

最近的 ZYTX Shenyang TaokianLFLW Aurillac LFCF Figeac-LivernonLFBT Tarbes-Lourdes-PyrénéesLFQQ Lille-Lesquin OOMS Muscat Seeb

飞行员的航空天气,使用METAR(气象机场报告)进行的飞行准备和TAF(终端机场预报:针对以下情况的短期天气预报)航空)。 以及其他资源,例如VAC(目视进近图)和NOTAM(通知飞行员)以进行预试飞行.

METAR, TAF, VAC, NOTAM Manassas Regl Davis机场 (美国) / OACI KHEF/ IATA MNZ

它位于附近 Manassas, Bristow 在 1.8 km, Manassas 在 4.8 km, City of Manassas 在 4.8 km, Nokesville 在 6.1 km, Linton Hall 在 6.7 km, Bull Run 在 6.9 km, West Gate 在 7 km, Buckhall 在 7.4 km, Loch Lomond 在 7.9 km, Manassas Park 在 8 km,

机场的高度为 Manassas Regl Davis机场的

59 m = 194 ft

附近的机场Manassas Regl Davis机场的

跑道 Manassas Regl Davis机场的

目前的天气 Manassas Regl Davis机场的 - KHEF

faible pluie
35°C

Vent 15 km/h

可提供5天天气预报 Bristow 在 1.8 km, Manassas 在 4.8 km, City of Manassas 在 4.8 km, Nokesville 在 6.1 km, Linton Hall 在 6.7 km, Bull Run 在 6.9 km, West Gate 在 7 km, Buckhall 在 7.4 km, Loch Lomond 在 7.9 km, Manassas Park 在 8 km,

METAR Manassas Regl Davis机场的 - KHEF

KHEF 032056Z AUTO 35008KT 10SM CLR 35/19 A2987 RMK AO2 SLP119 T03500189 58013

Manassas Regl Davis机场METAR解码 (美国)

KHEF机场发行的METAR日期2020年07月03日至20:56 GMT. 这是一个自动生成的METAR, 警告:此METAR已过期, 已于 40 天 9 小时 33 分钟.

可见度为16.1 km = 10 sm.

温度为35°C = 95 °F 露点为19°C = 66 °F 。 这相当于39%的相对湿度。.

QNH是1012 hPa = 29.88 inHg

的风8 kt = 15 km/h, 风向为350°.

天空晴朗

备注 AO2 SLP119 T03500189 58013

TAF Manassas Regl Davis机场的 - KHEF

没有TAF

Manassas Regl Davis机场的NOTAM

提供的NOTAM不能保证其时事性。 在将其用于飞行准备或在飞行期间使用之前,飞行员是唯一负责验证其有效性的人员。

没有通知

数据源